sensor_id;sensor_type;location;lat;lon;timestamp;temperature;humidity
58809;DHT22;44579;51.672;7.834;2023-03-01T00:01:42;-0.40;71.80
58809;DHT22;44579;51.672;7.834;2023-03-01T00:04:09;-0.40;71.80
58809;DHT22;44579;51.672;7.834;2023-03-01T00:06:37;-0.40;71.90
58809;DHT22;44579;51.672;7.834;2023-03-01T00:09:05;-0.40;71.90
58809;DHT22;44579;51.672;7.834;2023-03-01T00:11:33;-0.40;71.90
58809;DHT22;44579;51.672;7.834;2023-03-01T00:14:03;-0.40;71.90
58809;DHT22;44579;51.672;7.834;2023-03-01T00:16:37;-0.50;71.80
58809;DHT22;44579;51.672;7.834;2023-03-01T00:19:12;-0.50;71.90
58809;DHT22;44579;51.672;7.834;2023-03-01T00:21:43;-0.60;71.90
58809;DHT22;44579;51.672;7.834;2023-03-01T00:24:15;-0.70;71.90
58809;DHT22;44579;51.672;7.834;2023-03-01T00:26:52;-0.70;72.00
58809;DHT22;44579;51.672;7.834;2023-03-01T00:29:26;-0.80;72.00
58809;DHT22;44579;51.672;7.834;2023-03-01T00:31:54;-0.80;72.10
58809;DHT22;44579;51.672;7.834;2023-03-01T00:34:22;-0.80;72.10
58809;DHT22;44579;51.672;7.834;2023-03-01T00:36:50;-0.90;72.00
58809;DHT22;44579;51.672;7.834;2023-03-01T00:39:17;-1.00;72.00
58809;DHT22;44579;51.672;7.834;2023-03-01T00:41:44;-1.00;72.10
58809;DHT22;44579;51.672;7.834;2023-03-01T00:44:12;-1.00;72.20
58809;DHT22;44579;51.672;7.834;2023-03-01T00:46:40;-1.00;72.20
58809;DHT22;44579;51.672;7.834;2023-03-01T00:49:07;-1.00;72.20
58809;DHT22;44579;51.672;7.834;2023-03-01T00:51:35;-1.10;72.30
58809;DHT22;44579;51.672;7.834;2023-03-01T00:54:03;-1.20;72.10
58809;DHT22;44579;51.672;7.834;2023-03-01T00:56:30;-1.10;72.20
58809;DHT22;44579;51.672;7.834;2023-03-01T00:58:58;-1.10;72.10
58809;DHT22;44579;51.672;7.834;2023-03-01T01:01:30;-1.20;72.00
58809;DHT22;44579;51.672;7.834;2023-03-01T01:04:03;-1.20;72.00
58809;DHT22;44579;51.672;7.834;2023-03-01T01:06:40;-1.20;72.00
58809;DHT22;44579;51.672;7.834;2023-03-01T01:09:10;-1.30;72.10
58809;DHT22;44579;51.672;7.834;2023-03-01T01:11:47;-1.20;72.10
58809;DHT22;44579;51.672;7.834;2023-03-01T01:14:15;-1.30;72.30
58809;DHT22;44579;51.672;7.834;2023-03-01T01:16:48;-1.30;72.00
58809;DHT22;44579;51.672;7.834;2023-03-01T01:19:20;-1.30;72.00
58809;DHT22;44579;51.672;7.834;2023-03-01T01:21:48;-1.30;72.00
58809;DHT22;44579;51.672;7.834;2023-03-01T01:24:16;-1.30;72.00
58809;DHT22;44579;51.672;7.834;2023-03-01T01:26:46;-1.30;72.10
58809;DHT22;44579;51.672;7.834;2023-03-01T01:29:17;-1.30;72.10
58809;DHT22;44579;51.672;7.834;2023-03-01T01:31:47;-1.30;72.00
58809;DHT22;44579;51.672;7.834;2023-03-01T01:34:16;-1.30;72.00
58809;DHT22;44579;51.672;7.834;2023-03-01T01:36:47;-1.40;72.00
58809;DHT22;44579;51.672;7.834;2023-03-01T01:39:15;-1.40;72.00
58809;DHT22;44579;51.672;7.834;2023-03-01T01:41:45;-1.40;72.00
58809;DHT22;44579;51.672;7.834;2023-03-01T01:44:17;-1.40;72.00
58809;DHT22;44579;51.672;7.834;2023-03-01T01:46:54;-1.40;72.00
58809;DHT22;44579;51.672;7.834;2023-03-01T01:49:37;-1.50;71.90
58809;DHT22;44579;51.672;7.834;2023-03-01T01:52:09;-1.50;72.00
58809;DHT22;44579;51.672;7.834;2023-03-01T01:54:59;-1.50;72.10
58809;DHT22;44579;51.672;7.834;2023-03-01T01:57:29;-1.50;72.10
58809;DHT22;44579;51.672;7.834;2023-03-01T02:00:05;-1.50;72.10
58809;DHT22;44579;51.672;7.834;2023-03-01T02:02:38;-1.50;72.00
58809;DHT22;44579;51.672;7.834;2023-03-01T02:07:40;-1.50;72.00
58809;DHT22;44579;51.672;7.834;2023-03-01T02:10:08;-1.50;72.00
58809;DHT22;44579;51.672;7.834;2023-03-01T02:12:36;-1.60;72.00
58809;DHT22;44579;51.672;7.834;2023-03-01T02:15:04;-1.60;71.90
58809;DHT22;44579;51.672;7.834;2023-03-01T02:17:31;-1.60;71.90
58809;DHT22;44579;51.672;7.834;2023-03-01T02:20:03;-1.60;72.00
58809;DHT22;44579;51.672;7.834;2023-03-01T02:22:36;-1.60;72.00
58809;DHT22;44579;51.672;7.834;2023-03-01T02:27:54;-1.60;72.00
58809;DHT22;44579;51.672;7.834;2023-03-01T02:30:25;-1.60;72.00
58809;DHT22;44579;51.672;7.834;2023-03-01T02:32:53;-1.70;71.90
58809;DHT22;44579;51.672;7.834;2023-03-01T02:35:22;-1.70;72.00
58809;DHT22;44579;51.672;7.834;2023-03-01T02:37:50;-1.70;72.00
58809;DHT22;44579;51.672;7.834;2023-03-01T02:40:17;-1.80;72.00
58809;DHT22;44579;51.672;7.834;2023-03-01T02:42:47;-1.80;72.10
58809;DHT22;44579;51.672;7.834;2023-03-01T02:45:16;-1.90;72.10
58809;DHT22;44579;51.672;7.834;2023-03-01T02:47:43;-1.90;72.20
58809;DHT22;44579;51.672;7.834;2023-03-01T02:50:18;-2.00;72.20
58809;DHT22;44579;51.672;7.834;2023-03-01T02:53:09;-2.00;72.20
58809;DHT22;44579;51.672;7.834;2023-03-01T02:55:38;-2.00;72.20
58809;DHT22;44579;51.672;7.834;2023-03-01T02:58:06;-2.00;72.20
58809;DHT22;44579;51.672;7.834;2023-03-01T03:00:36;-2.00;72.20
58809;DHT22;44579;51.672;7.834;2023-03-01T03:03:07;-2.10;72.00
58809;DHT22;44579;51.672;7.834;2023-03-01T03:05:35;-2.10;72.10
58809;DHT22;44579;51.672;7.834;2023-03-01T03:08:03;-2.10;72.10
58809;DHT22;44579;51.672;7.834;2023-03-01T03:10:37;-2.20;72.10
58809;DHT22;44579;51.672;7.834;2023-03-01T03:13:05;-2.20;72.20
58809;DHT22;44579;51.672;7.834;2023-03-01T03:15:33;-2.20;72.20
58809;DHT22;44579;51.672;7.834;2023-03-01T03:18:06;-2.20;72.30
58809;DHT22;44579;51.672;7.834;2023-03-01T03:20:39;-2.20;72.20
58809;DHT22;44579;51.672;7.834;2023-03-01T03:23:07;-2.20;72.10
58809;DHT22;44579;51.672;7.834;2023-03-01T03:25:37;-2.20;72.10
58809;DHT22;44579;51.672;7.834;2023-03-01T03:28:05;-2.30;72.10
58809;DHT22;44579;51.672;7.834;2023-03-01T03:30:38;-2.30;72.20
58809;DHT22;44579;51.672;7.834;2023-03-01T03:33:08;-2.30;72.20
58809;DHT22;44579;51.672;7.834;2023-03-01T03:35:42;-2.30;72.20
58809;DHT22;44579;51.672;7.834;2023-03-01T03:38:14;-2.40;72.30
58809;DHT22;44579;51.672;7.834;2023-03-01T03:40:46;-2.40;72.30
58809;DHT22;44579;51.672;7.834;2023-03-01T03:43:19;-2.40;72.30
58809;DHT22;44579;51.672;7.834;2023-03-01T03:45:46;-2.40;72.30
58809;DHT22;44579;51.672;7.834;2023-03-01T03:48:14;-2.40;72.30
58809;DHT22;44579;51.672;7.834;2023-03-01T03:50:47;-2.40;72.30
58809;DHT22;44579;51.672;7.834;2023-03-01T03:53:14;-2.40;72.30
58809;DHT22;44579;51.672;7.834;2023-03-01T03:55:42;-2.40;73.10
58809;DHT22;44579;51.672;7.834;2023-03-01T03:58:09;-2.40;72.10
58809;DHT22;44579;51.672;7.834;2023-03-01T04:00:38;-2.40;72.10
58809;DHT22;44579;51.672;7.834;2023-03-01T04:03:07;-2.40;72.10
58809;DHT22;44579;51.672;7.834;2023-03-01T04:05:35;-2.40;72.20
58809;DHT22;44579;51.672;7.834;2023-03-01T04:08:02;-2.50;72.10
58809;DHT22;44579;51.672;7.834;2023-03-01T04:10:37;-2.50;72.10
58809;DHT22;44579;51.672;7.834;2023-03-01T04:13:06;-2.50;72.20
58809;DHT22;44579;51.672;7.834;2023-03-01T04:15:34;-2.40;73.20
58809;DHT22;44579;51.672;7.834;2023-03-01T04:18:03;-2.50;72.10
58809;DHT22;44579;51.672;7.834;2023-03-01T04:20:35;-2.50;72.10
58809;DHT22;44579;51.672;7.834;2023-03-01T04:23:03;-2.50;72.10
58809;DHT22;44579;51.672;7.834;2023-03-01T04:28:06;-2.50;72.20
58809;DHT22;44579;51.672;7.834;2023-03-01T04:30:34;-2.60;72.20
58809;DHT22;44579;51.672;7.834;2023-03-01T04:33:03;-2.50;72.30
58809;DHT22;44579;51.672;7.834;2023-03-01T04:35:31;-2.60;72.20
58809;DHT22;44579;51.672;7.834;2023-03-01T04:38:02;-2.70;72.20
58809;DHT22;44579;51.672;7.834;2023-03-01T04:40:29;-2.70;72.20
58809;DHT22;44579;51.672;7.834;2023-03-01T04:42:56;-2.70;72.20
58809;DHT22;44579;51.672;7.834;2023-03-01T04:45:24;-2.70;72.30
58809;DHT22;44579;51.672;7.834;2023-03-01T04:47:55;-2.80;72.30
58809;DHT22;44579;51.672;7.834;2023-03-01T04:50:24;-2.80;72.30
58809;DHT22;44579;51.672;7.834;2023-03-01T04:52:53;-2.80;72.40
58809;DHT22;44579;51.672;7.834;2023-03-01T04:55:20;-2.90;72.50
58809;DHT22;44579;51.672;7.834;2023-03-01T04:57:47;-2.80;72.60
58809;DHT22;44579;51.672;7.834;2023-03-01T05:00:18;-2.90;72.70
58809;DHT22;44579;51.672;7.834;2023-03-01T05:02:50;-2.90;72.60
58809;DHT22;44579;51.672;7.834;2023-03-01T05:05:21;-2.90;72.70
58809;DHT22;44579;51.672;7.834;2023-03-01T05:07:53;-2.90;72.70
58809;DHT22;44579;51.672;7.834;2023-03-01T05:10:20;-2.90;72.60
58809;DHT22;44579;51.672;7.834;2023-03-01T05:12:48;-3.00;72.60
58809;DHT22;44579;51.672;7.834;2023-03-01T05:15:16;-2.90;72.60
58809;DHT22;44579;51.672;7.834;2023-03-01T05:17:49;-3.00;72.50
58809;DHT22;44579;51.672;7.834;2023-03-01T05:20:16;-3.00;72.50
58809;DHT22;44579;51.672;7.834;2023-03-01T05:22:43;-3.00;72.50
58809;DHT22;44579;51.672;7.834;2023-03-01T05:25:11;-3.00;72.40
58809;DHT22;44579;51.672;7.834;2023-03-01T05:27:43;-3.00;72.40
58809;DHT22;44579;51.672;7.834;2023-03-01T05:30:14;-3.00;72.60
58809;DHT22;44579;51.672;7.834;2023-03-01T05:32:46;-3.10;72.50
58809;DHT22;44579;51.672;7.834;2023-03-01T05:35:14;-3.10;72.50
58809;DHT22;44579;51.672;7.834;2023-03-01T05:37:46;-3.10;72.50
58809;DHT22;44579;51.672;7.834;2023-03-01T05:40:18;-3.10;72.50
58809;DHT22;44579;51.672;7.834;2023-03-01T05:42:50;-3.10;72.50
58809;DHT22;44579;51.672;7.834;2023-03-01T05:45:27;-3.10;72.50
58809;DHT22;44579;51.672;7.834;2023-03-01T05:47:57;-3.10;72.50
58809;DHT22;44579;51.672;7.834;2023-03-01T05:50:25;-3.20;72.50
58809;DHT22;44579;51.672;7.834;2023-03-01T05:52:57;-3.20;72.60
58809;DHT22;44579;51.672;7.834;2023-03-01T05:55:25;-3.20;72.80
58809;DHT22;44579;51.672;7.834;2023-03-01T05:57:57;-3.20;72.80
58809;DHT22;44579;51.672;7.834;2023-03-01T06:00:30;-3.20;72.80
58809;DHT22;44579;51.672;7.834;2023-03-01T06:02:58;-3.30;72.80
58809;DHT22;44579;51.672;7.834;2023-03-01T06:05:26;-3.30;72.80
58809;DHT22;44579;51.672;7.834;2023-03-01T06:07:59;-3.30;72.90
58809;DHT22;44579;51.672;7.834;2023-03-01T06:10:30;-3.30;72.90
58809;DHT22;44579;51.672;7.834;2023-03-01T06:12:58;-3.40;72.90
58809;DHT22;44579;51.672;7.834;2023-03-01T06:15:28;-3.30;73.00
58809;DHT22;44579;51.672;7.834;2023-03-01T06:18:03;-3.30;72.90
58809;DHT22;44579;51.672;7.834;2023-03-01T06:20:31;-3.30;72.70
58809;DHT22;44579;51.672;7.834;2023-03-01T06:22:58;-3.30;72.70
58809;DHT22;44579;51.672;7.834;2023-03-01T06:25:29;-3.30;72.70
58809;DHT22;44579;51.672;7.834;2023-03-01T06:27:57;-3.30;72.60
58809;DHT22;44579;51.672;7.834;2023-03-01T06:30:28;-3.30;72.60
58809;DHT22;44579;51.672;7.834;2023-03-01T06:32:56;-3.30;72.70
58809;DHT22;44579;51.672;7.834;2023-03-01T06:35:30;-3.20;72.70
58809;DHT22;44579;51.672;7.834;2023-03-01T06:38:10;-3.20;72.70
58809;DHT22;44579;51.672;7.834;2023-03-01T06:40:40;-3.20;72.60
58809;DHT22;44579;51.672;7.834;2023-03-01T06:43:09;-3.10;72.60
58809;DHT22;44579;51.672;7.834;2023-03-01T06:45:40;-3.10;72.60
58809;DHT22;44579;51.672;7.834;2023-03-01T06:48:09;-3.10;72.50
58809;DHT22;44579;51.672;7.834;2023-03-01T06:50:36;-3.10;72.50
58809;DHT22;44579;51.672;7.834;2023-03-01T06:53:05;-3.10;72.60
58809;DHT22;44579;51.672;7.834;2023-03-01T06:56:04;-3.10;72.70
58809;DHT22;44579;51.672;7.834;2023-03-01T06:58:35;-3.00;72.80
58809;DHT22;44579;51.672;7.834;2023-03-01T07:01:07;-2.90;72.80
58809;DHT22;44579;51.672;7.834;2023-03-01T07:03:34;-2.90;72.80
58809;DHT22;44579;51.672;7.834;2023-03-01T07:06:06;-2.80;72.70
58809;DHT22;44579;51.672;7.834;2023-03-01T07:08:33;-2.70;72.70
58809;DHT22;44579;51.672;7.834;2023-03-01T07:11:03;-2.70;72.60
58809;DHT22;44579;51.672;7.834;2023-03-01T07:13:34;-2.60;72.60
58809;DHT22;44579;51.672;7.834;2023-03-01T07:16:07;-2.60;72.50
58809;DHT22;44579;51.672;7.834;2023-03-01T07:18:35;-2.50;72.50
58809;DHT22;44579;51.672;7.834;2023-03-01T07:21:06;-2.40;72.50
58809;DHT22;44579;51.672;7.834;2023-03-01T07:23:34;-2.30;72.40
58809;DHT22;44579;51.672;7.834;2023-03-01T07:26:04;-2.20;72.30
58809;DHT22;44579;51.672;7.834;2023-03-01T07:28:32;-2.10;72.30
58809;DHT22;44579;51.672;7.834;2023-03-01T07:31:03;-2.10;72.30
58809;DHT22;44579;51.672;7.834;2023-03-01T07:33:33;-2.00;72.30
58809;DHT22;44579;51.672;7.834;2023-03-01T07:36:02;-2.00;72.30
58809;DHT22;44579;51.672;7.834;2023-03-01T07:38:31;-1.80;72.40
58809;DHT22;44579;51.672;7.834;2023-03-01T07:41:00;-1.80;72.40
58809;DHT22;44579;51.672;7.834;2023-03-01T07:43:29;-1.70;72.40
58809;DHT22;44579;51.672;7.834;2023-03-01T07:46:00;-1.70;72.40
58809;DHT22;44579;51.672;7.834;2023-03-01T07:48:29;-1.60;72.60
58809;DHT22;44579;51.672;7.834;2023-03-01T07:50:57;-1.50;72.70
58809;DHT22;44579;51.672;7.834;2023-03-01T07:53:25;-1.40;72.80
58809;DHT22;44579;51.672;7.834;2023-03-01T07:56:12;-1.30;72.80
58809;DHT22;44579;51.672;7.834;2023-03-01T07:58:40;-1.30;72.80
58809;DHT22;44579;51.672;7.834;2023-03-01T08:01:10;-1.20;72.90
58809;DHT22;44579;51.672;7.834;2023-03-01T08:03:38;-1.20;72.90
58809;DHT22;44579;51.672;7.834;2023-03-01T08:06:08;-1.10;72.90
58809;DHT22;44579;51.672;7.834;2023-03-01T08:08:36;-1.00;73.00
58809;DHT22;44579;51.672;7.834;2023-03-01T08:11:05;-1.00;73.00
58809;DHT22;44579;51.672;7.834;2023-03-01T08:13:37;-0.90;73.10
58809;DHT22;44579;51.672;7.834;2023-03-01T08:16:06;-0.80;73.20
58809;DHT22;44579;51.672;7.834;2023-03-01T08:18:34;-0.80;73.30
58809;DHT22;44579;51.672;7.834;2023-03-01T08:21:03;-0.70;73.50
58809;DHT22;44579;51.672;7.834;2023-03-01T08:23:31;-0.60;73.60
58809;DHT22;44579;51.672;7.834;2023-03-01T08:29:00;-0.40;73.80
58809;DHT22;44579;51.672;7.834;2023-03-01T08:34:49;-0.30;74.20
58809;DHT22;44579;51.672;7.834;2023-03-01T08:37:17;-0.10;74.20
58809;DHT22;44579;51.672;7.834;2023-03-01T08:40:00;0.00;74.40
58809;DHT22;44579;51.672;7.834;2023-03-01T08:42:32;0.10;74.40
58809;DHT22;44579;51.672;7.834;2023-03-01T08:44:59;0.20;74.40
58809;DHT22;44579;51.672;7.834;2023-03-01T08:47:41;0.20;74.40
58809;DHT22;44579;51.672;7.834;2023-03-01T08:50:08;0.30;74.50
58809;DHT22;44579;51.672;7.834;2023-03-01T08:52:40;0.40;74.40
58809;DHT22;44579;51.672;7.834;2023-03-01T08:55:08;0.50;74.50
58809;DHT22;44579;51.672;7.834;2023-03-01T09:00:58;0.70;74.70
58809;DHT22;44579;51.672;7.834;2023-03-01T09:03:27;0.70;74.70
58809;DHT22;44579;51.672;7.834;2023-03-01T09:06:18;0.80;75.00
58809;DHT22;44579;51.672;7.834;2023-03-01T09:08:47;0.80;75.10
58809;DHT22;44579;51.672;7.834;2023-03-01T09:11:43;0.80;75.10
58809;DHT22;44579;51.672;7.834;2023-03-01T09:14:13;0.90;75.40
58809;DHT22;44579;51.672;7.834;2023-03-01T09:16:41;1.00;75.40
58809;DHT22;44579;51.672;7.834;2023-03-01T09:19:09;1.00;75.50
58809;DHT22;44579;51.672;7.834;2023-03-01T09:21:37;1.10;75.60
58809;DHT22;44579;51.672;7.834;2023-03-01T09:24:11;1.20;75.70
58809;DHT22;44579;51.672;7.834;2023-03-01T09:26:43;1.20;75.70
58809;DHT22;44579;51.672;7.834;2023-03-01T09:29:15;1.20;75.80
58809;DHT22;44579;51.672;7.834;2023-03-01T09:32:05;1.30;75.90
58809;DHT22;44579;51.672;7.834;2023-03-01T09:34:57;1.40;77.00
58809;DHT22;44579;51.672;7.834;2023-03-01T09:37:34;1.50;76.00
58809;DHT22;44579;51.672;7.834;2023-03-01T09:40:02;1.60;76.00
58809;DHT22;44579;51.672;7.834;2023-03-01T09:42:34;1.80;76.10
58809;DHT22;44579;51.672;7.834;2023-03-01T09:45:24;1.90;76.40
58809;DHT22;44579;51.672;7.834;2023-03-01T09:50:57;2.10;76.40
58809;DHT22;44579;51.672;7.834;2023-03-01T09:53:29;2.20;76.90
58809;DHT22;44579;51.672;7.834;2023-03-01T09:56:00;2.30;77.50
58809;DHT22;44579;51.672;7.834;2023-03-01T10:01:43;2.40;77.30
58809;DHT22;44579;51.672;7.834;2023-03-01T10:09:46;2.50;77.80
58809;DHT22;44579;51.672;7.834;2023-03-01T10:12:17;2.60;78.20
58809;DHT22;44579;51.672;7.834;2023-03-01T10:17:35;2.80;78.50
58809;DHT22;44579;51.672;7.834;2023-03-01T10:20:41;2.80;78.10
58809;DHT22;44579;51.672;7.834;2023-03-01T10:22:57;2.80;78.00
58809;DHT22;44579;51.672;7.834;2023-03-01T10:31:24;3.00;77.60
58809;DHT22;44579;51.672;7.834;2023-03-01T10:33:56;3.00;77.30
58809;DHT22;44579;51.672;7.834;2023-03-01T10:36:24;3.10;77.30
58809;DHT22;44579;51.672;7.834;2023-03-01T10:38:55;3.10;77.20
58809;DHT22;44579;51.672;7.834;2023-03-01T10:41:24;3.10;76.90
58809;DHT22;44579;51.672;7.834;2023-03-01T10:43:52;3.20;76.60
58809;DHT22;44579;51.672;7.834;2023-03-01T10:46:27;3.20;76.10
58809;DHT22;44579;51.672;7.834;2023-03-01T10:51:30;3.20;75.40
58809;DHT22;44579;51.672;7.834;2023-03-01T10:53:58;3.20;75.30
58809;DHT22;44579;51.672;7.834;2023-03-01T10:56:24;3.30;75.20
58809;DHT22;44579;51.672;7.834;2023-03-01T10:59:04;3.30;74.90
58809;DHT22;44579;51.672;7.834;2023-03-01T11:01:32;3.30;74.70
58809;DHT22;44579;51.672;7.834;2023-03-01T11:06:32;3.30;74.50
58809;DHT22;44579;51.672;7.834;2023-03-01T11:09:12;3.30;74.50
58809;DHT22;44579;51.672;7.834;2023-03-01T11:11:40;3.30;74.50
58809;DHT22;44579;51.672;7.834;2023-03-01T11:14:12;3.40;74.70
58809;DHT22;44579;51.672;7.834;2023-03-01T11:16:59;3.40;74.60
58809;DHT22;44579;51.672;7.834;2023-03-01T11:19:26;3.40;74.70
58809;DHT22;44579;51.672;7.834;2023-03-01T11:22:02;3.40;74.50
58809;DHT22;44579;51.672;7.834;2023-03-01T11:24:31;3.40;74.30
58809;DHT22;44579;51.672;7.834;2023-03-01T11:27:01;3.50;74.10
58809;DHT22;44579;51.672;7.834;2023-03-01T11:29:35;3.50;73.90
58809;DHT22;44579;51.672;7.834;2023-03-01T11:32:14;3.50;73.60
58809;DHT22;44579;51.672;7.834;2023-03-01T11:34:49;3.60;73.70
58809;DHT22;44579;51.672;7.834;2023-03-01T11:37:22;3.60;73.90
58809;DHT22;44579;51.672;7.834;2023-03-01T11:39:58;3.60;73.60
58809;DHT22;44579;51.672;7.834;2023-03-01T11:45:10;3.70;73.10
58809;DHT22;44579;51.672;7.834;2023-03-01T11:50:19;3.80;72.70
58809;DHT22;44579;51.672;7.834;2023-03-01T11:55:45;3.80;72.50
58809;DHT22;44579;51.672;7.834;2023-03-01T12:01:02;3.80;71.60
58809;DHT22;44579;51.672;7.834;2023-03-01T12:03:45;3.90;71.80
58809;DHT22;44579;51.672;7.834;2023-03-01T12:11:39;4.10;71.70
58809;DHT22;44579;51.672;7.834;2023-03-01T12:14:20;4.20;71.90
58809;DHT22;44579;51.672;7.834;2023-03-01T12:22:23;4.30;71.70
58809;DHT22;44579;51.672;7.834;2023-03-01T12:27:48;4.40;71.80
58809;DHT22;44579;51.672;7.834;2023-03-01T12:47:17;4.70;69.60
58809;DHT22;44579;51.672;7.834;2023-03-01T12:52:23;4.80;67.80
58809;DHT22;44579;51.672;7.834;2023-03-01T12:54:53;4.80;67.30
58809;DHT22;44579;51.672;7.834;2023-03-01T12:57:24;4.80;66.30
58809;DHT22;44579;51.672;7.834;2023-03-01T13:03:44;4.80;65.70
58809;DHT22;44579;51.672;7.834;2023-03-01T13:08:57;4.90;66.00
58809;DHT22;44579;51.672;7.834;2023-03-01T13:11:30;5.00;66.10
58809;DHT22;44579;51.672;7.834;2023-03-01T13:16:56;5.00;66.10
58809;DHT22;44579;51.672;7.834;2023-03-01T13:19:27;5.00;66.60
58809;DHT22;44579;51.672;7.834;2023-03-01T13:21:59;5.00;67.20
58809;DHT22;44579;51.672;7.834;2023-03-01T13:24:46;5.10;67.60
58809;DHT22;44579;51.672;7.834;2023-03-01T13:29:51;5.20;67.30
58809;DHT22;44579;51.672;7.834;2023-03-01T13:43:27;5.20;64.70
58809;DHT22;44579;51.672;7.834;2023-03-01T13:46:07;5.20;64.50
58809;DHT22;44579;51.672;7.834;2023-03-01T13:48:35;5.20;64.70
58809;DHT22;44579;51.672;7.834;2023-03-01T13:51:03;5.30;65.40
58809;DHT22;44579;51.672;7.834;2023-03-01T13:53:31;5.30;64.60
58809;DHT22;44579;51.672;7.834;2023-03-01T13:56:01;5.30;64.40
58809;DHT22;44579;51.672;7.834;2023-03-01T13:58:33;5.30;64.60
58809;DHT22;44579;51.672;7.834;2023-03-01T14:04:44;5.40;64.10
58809;DHT22;44579;51.672;7.834;2023-03-01T14:07:10;5.50;65.10
58809;DHT22;44579;51.672;7.834;2023-03-01T14:09:40;5.60;65.60
58809;DHT22;44579;51.672;7.834;2023-03-01T14:12:16;5.60;64.80
58809;DHT22;44579;51.672;7.834;2023-03-01T14:17:42;5.50;63.50
58809;DHT22;44579;51.672;7.834;2023-03-01T14:20:30;5.60;64.30
58809;DHT22;44579;51.672;7.834;2023-03-01T14:22:59;5.60;64.80
58809;DHT22;44579;51.672;7.834;2023-03-01T14:25:31;5.60;63.80
58809;DHT22;44579;51.672;7.834;2023-03-01T14:31:48;5.60;64.50
58809;DHT22;44579;51.672;7.834;2023-03-01T14:34:59;5.60;64.30
58809;DHT22;44579;51.672;7.834;2023-03-01T14:37:34;5.60;65.30
58809;DHT22;44579;51.672;7.834;2023-03-01T14:40:02;5.70;65.50
58809;DHT22;44579;51.672;7.834;2023-03-01T14:42:35;5.70;65.50
58809;DHT22;44579;51.672;7.834;2023-03-01T14:45:05;5.70;65.50
58809;DHT22;44579;51.672;7.834;2023-03-01T14:47:34;5.70;63.90
58809;DHT22;44579;51.672;7.834;2023-03-01T14:52:32;5.70;64.50
58809;DHT22;44579;51.672;7.834;2023-03-01T14:55:02;5.70;64.10
58809;DHT22;44579;51.672;7.834;2023-03-01T14:57:30;5.70;63.50
58809;DHT22;44579;51.672;7.834;2023-03-01T14:59:58;5.70;63.70
58809;DHT22;44579;51.672;7.834;2023-03-01T15:02:35;5.70;64.10
58809;DHT22;44579;51.672;7.834;2023-03-01T15:22:40;5.80;61.70
58809;DHT22;44579;51.672;7.834;2023-03-01T16:01:24;5.70;61.20
58809;DHT22;44579;51.672;7.834;2023-03-01T16:04:02;5.60;61.80
58809;DHT22;44579;51.672;7.834;2023-03-01T16:06:35;5.60;62.20
58809;DHT22;44579;51.672;7.834;2023-03-01T16:09:05;5.60;62.60
58809;DHT22;44579;51.672;7.834;2023-03-01T16:11:36;5.60;62.20
58809;DHT22;44579;51.672;7.834;2023-03-01T16:14:14;5.60;62.40
58809;DHT22;44579;51.672;7.834;2023-03-01T16:16:49;5.60;62.70
58809;DHT22;44579;51.672;7.834;2023-03-01T16:19:23;5.60;63.00
58809;DHT22;44579;51.672;7.834;2023-03-01T16:21:57;5.60;62.60
58809;DHT22;44579;51.672;7.834;2023-03-01T16:24:26;5.50;62.40
58809;DHT22;44579;51.672;7.834;2023-03-01T16:27:00;5.50;62.70
58809;DHT22;44579;51.672;7.834;2023-03-01T16:29:27;5.50;62.90
58809;DHT22;44579;51.672;7.834;2023-03-01T16:31:56;5.40;63.00
58809;DHT22;44579;51.672;7.834;2023-03-01T16:34:28;5.40;63.20
58809;DHT22;44579;51.672;7.834;2023-03-01T16:36:56;5.40;63.40
58809;DHT22;44579;51.672;7.834;2023-03-01T16:39:27;5.30;63.40
58809;DHT22;44579;51.672;7.834;2023-03-01T16:41:59;5.30;63.40
58809;DHT22;44579;51.672;7.834;2023-03-01T16:44:36;5.30;63.10
58809;DHT22;44579;51.672;7.834;2023-03-01T16:47:07;5.20;63.20
58809;DHT22;44579;51.672;7.834;2023-03-01T16:49:36;5.20;63.30
58809;DHT22;44579;51.672;7.834;2023-03-01T16:52:08;5.10;63.30
58809;DHT22;44579;51.672;7.834;2023-03-01T16:54:51;5.00;63.20
58809;DHT22;44579;51.672;7.834;2023-03-01T16:57:38;5.00;63.30
58809;DHT22;44579;51.672;7.834;2023-03-01T17:00:07;5.00;63.30
58809;DHT22;44579;51.672;7.834;2023-03-01T17:02:53;4.90;63.10
58809;DHT22;44579;51.672;7.834;2023-03-01T17:05:24;4.90;62.60
58809;DHT22;44579;51.672;7.834;2023-03-01T17:07:53;4.90;62.00
58809;DHT22;44579;51.672;7.834;2023-03-01T17:10:29;4.80;62.20
58809;DHT22;44579;51.672;7.834;2023-03-01T17:13:01;4.80;62.20
58809;DHT22;44579;51.672;7.834;2023-03-01T17:15:42;4.70;62.20
58809;DHT22;44579;51.672;7.834;2023-03-01T17:18:23;4.70;62.10
58809;DHT22;44579;51.672;7.834;2023-03-01T17:20:57;4.60;62.10
58809;DHT22;44579;51.672;7.834;2023-03-01T17:23:29;4.50;62.30
58809;DHT22;44579;51.672;7.834;2023-03-01T17:26:03;4.40;62.50
58809;DHT22;44579;51.672;7.834;2023-03-01T17:28:31;4.30;62.70
58809;DHT22;44579;51.672;7.834;2023-03-01T17:31:01;4.30;62.80
58809;DHT22;44579;51.672;7.834;2023-03-01T17:33:32;4.30;63.00
58809;DHT22;44579;51.672;7.834;2023-03-01T17:36:07;4.20;62.70
58809;DHT22;44579;51.672;7.834;2023-03-01T17:38:36;4.10;62.70
58809;DHT22;44579;51.672;7.834;2023-03-01T17:41:25;4.10;63.00
58809;DHT22;44579;51.672;7.834;2023-03-01T17:43:56;4.00;63.20
58809;DHT22;44579;51.672;7.834;2023-03-01T17:46:28;4.00;63.10
58809;DHT22;44579;51.672;7.834;2023-03-01T17:48:56;4.00;63.30
58809;DHT22;44579;51.672;7.834;2023-03-01T17:51:24;4.10;63.30
58809;DHT22;44579;51.672;7.834;2023-03-01T17:53:52;4.00;63.30
58809;DHT22;44579;51.672;7.834;2023-03-01T17:56:20;4.00;63.30
58809;DHT22;44579;51.672;7.834;2023-03-01T17:58:49;4.00;63.50
58809;DHT22;44579;51.672;7.834;2023-03-01T18:01:23;3.90;63.50
58809;DHT22;44579;51.672;7.834;2023-03-01T18:03:57;3.90;63.60
58809;DHT22;44579;51.672;7.834;2023-03-01T18:06:29;3.90;63.90
58809;DHT22;44579;51.672;7.834;2023-03-01T18:08:57;3.80;64.80
58809;DHT22;44579;51.672;7.834;2023-03-01T18:11:24;3.80;64.00
58809;DHT22;44579;51.672;7.834;2023-03-01T18:13:52;3.70;64.10
58809;DHT22;44579;51.672;7.834;2023-03-01T18:16:19;3.80;64.20
58809;DHT22;44579;51.672;7.834;2023-03-01T18:18:50;3.70;64.10
58809;DHT22;44579;51.672;7.834;2023-03-01T18:21:17;3.80;64.10
58809;DHT22;44579;51.672;7.834;2023-03-01T18:23:44;3.80;64.20
58809;DHT22;44579;51.672;7.834;2023-03-01T18:26:12;3.80;64.10
58809;DHT22;44579;51.672;7.834;2023-03-01T18:28:41;3.70;64.60
58809;DHT22;44579;51.672;7.834;2023-03-01T18:31:08;3.70;64.20
58809;DHT22;44579;51.672;7.834;2023-03-01T18:33:39;3.70;64.20
58809;DHT22;44579;51.672;7.834;2023-03-01T18:36:12;3.70;64.20
58809;DHT22;44579;51.672;7.834;2023-03-01T18:38:41;3.60;64.20
58809;DHT22;44579;51.672;7.834;2023-03-01T18:41:08;3.60;64.40
58809;DHT22;44579;51.672;7.834;2023-03-01T18:43:36;3.60;64.50
58809;DHT22;44579;51.672;7.834;2023-03-01T18:46:03;3.60;64.70
58809;DHT22;44579;51.672;7.834;2023-03-01T18:48:31;3.60;64.70
58809;DHT22;44579;51.672;7.834;2023-03-01T18:51:05;3.50;64.70
58809;DHT22;44579;51.672;7.834;2023-03-01T18:53:33;3.50;64.80
58809;DHT22;44579;51.672;7.834;2023-03-01T18:56:00;3.50;64.90
58809;DHT22;44579;51.672;7.834;2023-03-01T18:58:27;3.50;65.10
58809;DHT22;44579;51.672;7.834;2023-03-01T19:01:01;3.40;65.10